ADDS TAF Board (Experimental) INFO Settings
IDs: Format: Expanded Condensed

KMIA - Miami Intl, FL, US

Issued at 2321 UTC 25 Jun 2016
Updated at: 0054 UTC 26 Jun 2016
Time2353Z 26/01Z 26/02Z 26/03Z 26/04Z 26/05Z 26/06Z 26/07Z 26/08Z 26/09Z 26/10Z 26/11Z 26/12Z 26/13Z
Type OBS PRVL PRVL PRVL PRVL PRVL PRVL PRVL PRVL PRVL PRVL PRVL PRVL PRVL
VIS 10 >6 >6 >6 >6 >6 >6 >6 >6 >6 >6 >6 >6 >6
CIG -- -- -- -- -- -- -- -- -- -- -- -- -- --
Cover FEW SCT SCT SCT SCT SCT SCT SCT SCT SCT SCT SCT SCT SCT
FltCat VFR VFR VFR VFR VFR VFR VFR VFR VFR VFR VFR VFR VFR VFR
WX -- -- -- -- -- -- -- -- -- -- -- -- -- --
WDir 100 90 VRB VRB VRB VRB VRB VRB VRB VRB VRB VRB VRB VRB
WSpd 10 7 3 3 3 3 3 3 3 3 3 3 3 3
WGst -- -- -- -- -- -- -- -- -- -- -- -- -- --
R08/26
XWnd -2 -0 VRB VRB VRB VRB VRB VRB VRB VRB VRB VRB VRB VRB
HWnd 10 7 VRB VRB VRB VRB VRB VRB VRB VRB VRB VRB VRB VRB
R09/27
XWnd -2 -0 VRB VRB VRB VRB VRB VRB VRB VRB VRB VRB VRB VRB
HWnd 10 7 VRB VRB VRB VRB VRB VRB VRB VRB VRB VRB VRB VRB
R12/30
XWnd 3 3 VRB VRB VRB VRB VRB VRB VRB VRB VRB VRB VRB VRB
HWnd 9 6 VRB VRB VRB VRB VRB VRB VRB VRB VRB VRB VRB VRB

NOTE: TEMPO conditions in [brackets]. Keep in mind TEMPO conditions might be better (lower impact) than prevailing conditions.

Raw TAF
KMIA 252321Z 2600/2624 09007KT P6SM FEW035 SCT250
  FM260200 VRB03KT P6SM FEW025 SCT250
  FM261400 12007KT P6SM VCSH SCT025 SCT250
  FM261700 09010KT P6SM FEW030 SCT250


Raw METAR
KMIA 252353Z 10010KT 10SM FEW024 FEW300 29/24 A3006 RMK AO2 SLP181 CB DSNT SW AND W MOV W T02940239 10328 20294 53000
KMIA 252253Z 09008KT 10SM FEW030 SCT300 31/23 A3006 RMK AO2 SLP180 CB DSNT W AND NW MOV W T03060228 $
KMIA 252153Z 12010KT 10SM FEW035 FEW300 31/22 A3005 RMK AO2 SLP177 CB DSNT SW-W MOV W T03110222 $

METAR Board
Radar Display
Forecast Discussion

TAF Board Legend

Potential Impact
Threat None Slight Moderate High
Visibility (sm) ≥5.1 5.1>X≥3 3>X≥1 <1
Ceiling (100 ft) ≥30.1 30.1>X≥10 10>X≥5 <5
Wind Speed (kt) <10 10≤X<20 20≤X<30 ≥30
Wind Gust (kt) <15 15≤X<25 25≤X<35 ≥35
Weather No Wx Reported VCTS,-TS,-FZRA,SN TS,FZRA +TS,+FZRA,+SN